sensor_id;sensor_type;location;lat;lon;timestamp;pressure;altitude;pressure_sealevel;temperature;humidity
3096;BME280;1558;42.700;23.360;2022-12-07T00:01:41;95332.41;;;5.29;100.00
3096;BME280;1558;42.700;23.360;2022-12-07T00:04:11;95337.06;;;5.37;100.00
3096;BME280;1558;42.700;23.360;2022-12-07T00:06:41;95338.75;;;5.47;100.00
3096;BME280;1558;42.700;23.360;2022-12-07T00:09:12;95296.56;;;5.30;100.00
3096;BME280;1558;42.700;23.360;2022-12-07T00:11:41;95336.47;;;5.54;100.00
3096;BME280;1558;42.700;23.360;2022-12-07T00:14:13;95333.00;;;5.54;100.00
3096;BME280;1558;42.700;23.360;2022-12-07T00:16:41;95328.84;;;5.47;100.00
3096;BME280;1558;42.700;23.360;2022-12-07T00:19:11;95338.75;;;5.47;100.00
3096;BME280;1558;42.700;23.360;2022-12-07T00:21:39;95335.97;;;5.52;100.00
3096;BME280;1558;42.700;23.360;2022-12-07T00:24:08;95336.59;;;5.49;100.00
3096;BME280;1558;42.700;23.360;2022-12-07T00:26:37;95339.53;;;5.47;100.00
3096;BME280;1558;42.700;23.360;2022-12-07T00:29:08;95309.81;;;5.35;100.00
3096;BME280;1558;42.700;23.360;2022-12-07T00:31:40;95337.56;;;5.53;100.00
3096;BME280;1558;42.700;23.360;2022-12-07T00:34:12;95341.72;;;5.59;100.00
3096;BME280;1558;42.700;23.360;2022-12-07T00:36:42;95346.69;;;5.66;100.00
3096;BME280;1558;42.700;23.360;2022-12-07T00:39:10;95338.84;;;5.69;100.00
3096;BME280;1558;42.700;23.360;2022-12-07T00:41:38;95339.03;;;5.73;100.00
3096;BME280;1558;42.700;23.360;2022-12-07T00:44:06;95328.22;;;5.64;100.00
3096;BME280;1558;42.700;23.360;2022-12-07T00:46:33;95320.41;;;5.54;100.00
3096;BME280;1558;42.700;23.360;2022-12-07T00:49:05;95331.41;;;5.66;100.00
3096;BME280;1558;42.700;23.360;2022-12-07T00:53:59;95087.31;;;4.13;100.00
3096;BME280;1558;42.700;23.360;2022-12-07T00:56:33;95310.03;;;5.53;100.00
3096;BME280;1558;42.700;23.360;2022-12-07T00:59:17;95305.38;;;5.58;100.00
3096;BME280;1558;42.700;23.360;2022-12-07T01:02:07;95317.44;;;5.69;100.00
3096;BME280;1558;42.700;23.360;2022-12-07T01:05:27;95317.91;;;5.71;100.00
3096;BME280;1558;42.700;23.360;2022-12-07T01:08:31;95278.03;;;5.47;100.00
3096;BME280;1558;42.700;23.360;2022-12-07T01:14:01;95313.66;;;7.25;100.00
3096;BME280;1558;42.700;23.360;2022-12-07T01:20:25;95316.69;;;7.80;100.00
3096;BME280;1558;42.700;23.360;2022-12-07T01:23:25;95310.34;;;7.68;100.00
3096;BME280;1558;42.700;23.360;2022-12-07T01:26:51;95290.22;;;6.69;100.00
3096;BME280;1558;42.700;23.360;2022-12-07T01:30:27;95302.47;;;6.40;100.00
3096;BME280;1558;42.700;23.360;2022-12-07T01:33:52;95271.53;;;5.89;100.00
3096;BME280;1558;42.700;23.360;2022-12-07T01:36:43;95299.28;;;5.93;100.00
3096;BME280;1558;42.700;23.360;2022-12-07T01:39:51;95299.28;;;5.80;100.00
3096;BME280;1558;42.700;23.360;2022-12-07T01:42:55;95305.72;;;5.92;100.00
3096;BME280;1558;42.700;23.360;2022-12-07T01:45:45;95170.06;;;5.08;100.00
3096;BME280;1558;42.700;23.360;2022-12-07T01:48:19;95287.22;;;6.04;100.00
3096;BME280;1558;42.700;23.360;2022-12-07T01:51:01;95230.34;;;5.63;100.00
3096;BME280;1558;42.700;23.360;2022-12-07T01:53:40;95233.47;;;5.79;100.00
3096;BME280;1558;42.700;23.360;2022-12-07T01:56:17;95271.41;;;5.94;100.00
3096;BME280;1558;42.700;23.360;2022-12-07T01:58:48;95281.72;;;6.01;100.00
3096;BME280;1558;42.700;23.360;2022-12-07T02:01:24;95282.91;;;5.81;100.00
3096;BME280;1558;42.700;23.360;2022-12-07T02:03:54;95279.91;;;5.61;100.00
3096;BME280;1558;42.700;23.360;2022-12-07T02:06:24;95239.13;;;5.28;100.00
3096;BME280;1558;42.700;23.360;2022-12-07T02:08:58;95284.31;;;5.79;100.00
3096;BME280;1558;42.700;23.360;2022-12-07T02:11:33;95278.47;;;5.90;100.00
3096;BME280;1558;42.700;23.360;2022-12-07T02:14:17;95211.19;;;5.34;100.00
3096;BME280;1558;42.700;23.360;2022-12-07T02:17:07;95280.06;;;5.91;100.00
3096;BME280;1558;42.700;23.360;2022-12-07T02:20:14;95266.78;;;5.86;100.00
3096;BME280;1558;42.700;23.360;2022-12-07T02:23:12;95248.56;;;5.75;100.00
3096;BME280;1558;42.700;23.360;2022-12-07T02:29:58;95277.28;;;5.96;100.00
3096;BME280;1558;42.700;23.360;2022-12-07T02:35:57;95269.94;;;5.88;100.00
3096;BME280;1558;42.700;23.360;2022-12-07T02:39:00;95247.25;;;5.86;100.00
3096;BME280;1558;42.700;23.360;2022-12-07T02:41:55;95272.81;;;5.92;100.00
3096;BME280;1558;42.700;23.360;2022-12-07T02:45:12;95268.13;;;5.97;100.00
3096;BME280;1558;42.700;23.360;2022-12-07T02:47:58;95232.53;;;5.61;100.00
3096;BME280;1558;42.700;23.360;2022-12-07T02:50:30;95279.16;;;5.82;100.00
3096;BME280;1558;42.700;23.360;2022-12-07T02:53:55;95264.19;;;5.81;100.00
3096;BME280;1558;42.700;23.360;2022-12-07T02:56:47;95266.00;;;5.72;100.00
3096;BME280;1558;42.700;23.360;2022-12-07T02:59:54;95265.63;;;5.65;100.00
3096;BME280;1558;42.700;23.360;2022-12-07T03:02:58;95222.06;;;5.37;100.00
3096;BME280;1558;42.700;23.360;2022-12-07T03:08:14;95259.28;;;5.61;100.00
3096;BME280;1558;42.700;23.360;2022-12-07T03:11:25;95244.00;;;5.62;100.00
3096;BME280;1558;42.700;23.360;2022-12-07T03:14:19;95178.78;;;5.13;100.00
3096;BME280;1558;42.700;23.360;2022-12-07T03:17:04;95254.75;;;5.48;100.00
3096;BME280;1558;42.700;23.360;2022-12-07T03:19:42;95255.13;;;5.55;100.00
3096;BME280;1558;42.700;23.360;2022-12-07T03:22:20;95241.75;;;5.55;100.00
3096;BME280;1558;42.700;23.360;2022-12-07T03:25:05;95244.53;;;5.50;100.00
3096;BME280;1558;42.700;23.360;2022-12-07T03:27:43;95226.94;;;5.35;100.00
3096;BME280;1558;42.700;23.360;2022-12-07T03:30:31;95247.31;;;5.45;100.00
3096;BME280;1558;42.700;23.360;2022-12-07T03:33:26;95246.84;;;5.43;100.00
3096;BME280;1558;42.700;23.360;2022-12-07T03:37:10;95239.13;;;5.28;100.00
3096;BME280;1558;42.700;23.360;2022-12-07T03:40:08;95237.34;;;5.37;100.00
3096;BME280;1558;42.700;23.360;2022-12-07T03:43:18;95229.03;;;5.11;100.00
3096;BME280;1558;42.700;23.360;2022-12-07T03:46:21;95258.13;;;5.40;100.00
3096;BME280;1558;42.700;23.360;2022-12-07T03:52:17;95216.09;;;5.05;100.00
3096;BME280;1558;42.700;23.360;2022-12-07T03:54:52;95180.06;;;4.89;100.00
3096;BME280;1558;42.700;23.360;2022-12-07T03:57:32;95264.69;;;5.34;100.00
3096;BME280;1558;42.700;23.360;2022-12-07T04:00:08;95253.59;;;5.27;100.00
3096;BME280;1558;42.700;23.360;2022-12-07T04:05:31;95251.31;;;5.34;100.00
3096;BME280;1558;42.700;23.360;2022-12-07T04:08:02;95249.22;;;5.31;100.00
3096;BME280;1558;42.700;23.360;2022-12-07T04:10:37;95239.44;;;5.26;100.00
3096;BME280;1558;42.700;23.360;2022-12-07T04:13:15;95241.13;;;5.22;100.00
3096;BME280;1558;42.700;23.360;2022-12-07T04:16:03;95238.63;;;5.26;100.00
3096;BME280;1558;42.700;23.360;2022-12-07T04:18:37;95202.72;;;5.05;100.00
3096;BME280;1558;42.700;23.360;2022-12-07T04:21:07;95233.66;;;5.33;100.00
3096;BME280;1558;42.700;23.360;2022-12-07T04:23:41;95232.09;;;5.32;100.00
3096;BME280;1558;42.700;23.360;2022-12-07T04:26:28;95170.97;;;4.90;100.00
3096;BME280;1558;42.700;23.360;2022-12-07T04:29:37;95246.38;;;5.27;100.00
3096;BME280;1558;42.700;23.360;2022-12-07T04:32:07;95249.31;;;5.26;100.00
3096;BME280;1558;42.700;23.360;2022-12-07T04:34:57;95183.91;;;4.82;100.00
3096;BME280;1558;42.700;23.360;2022-12-07T04:37:56;95238.88;;;5.16;100.00
3096;BME280;1558;42.700;23.360;2022-12-07T04:43:05;95243.13;;;5.03;100.00
3096;BME280;1558;42.700;23.360;2022-12-07T04:45:47;95255.19;;;5.01;100.00
3096;BME280;1558;42.700;23.360;2022-12-07T04:48:47;95251.03;;;4.95;100.00
3096;BME280;1558;42.700;23.360;2022-12-07T04:52:27;95200.75;;;4.56;100.00
3096;BME280;1558;42.700;23.360;2022-12-07T04:55:21;95219.38;;;4.61;100.00
3096;BME280;1558;42.700;23.360;2022-12-07T05:05:23;95257.56;;;4.75;100.00
3096;BME280;1558;42.700;23.360;2022-12-07T05:08:11;95228.75;;;4.58;100.00
3096;BME280;1558;42.700;23.360;2022-12-07T05:10:51;95235.47;;;4.56;100.00
3096;BME280;1558;42.700;23.360;2022-12-07T05:13:19;95247.53;;;4.53;100.00
3096;BME280;1558;42.700;23.360;2022-12-07T05:15:48;95260.19;;;4.61;100.00
3096;BME280;1558;42.700;23.360;2022-12-07T05:18:17;95201.59;;;4.24;100.00
3096;BME280;1558;42.700;23.360;2022-12-07T05:20:58;95276.53;;;4.73;100.00
3096;BME280;1558;42.700;23.360;2022-12-07T05:23:26;95237.53;;;4.59;100.00
3096;BME280;1558;42.700;23.360;2022-12-07T05:25:54;95234.09;;;4.58;100.00
3096;BME280;1558;42.700;23.360;2022-12-07T05:28:21;95251.41;;;4.74;100.00
3096;BME280;1558;42.700;23.360;2022-12-07T05:30:49;95254.59;;;4.76;100.00
3096;BME280;1558;42.700;23.360;2022-12-07T05:33:25;95240.13;;;4.64;100.00
3096;BME280;1558;42.700;23.360;2022-12-07T05:35:53;95253.50;;;4.77;100.00
3096;BME280;1558;42.700;23.360;2022-12-07T05:38:23;95261.41;;;4.82;100.00
3096;BME280;1558;42.700;23.360;2022-12-07T05:40:51;95243.41;;;4.74;100.00
3096;BME280;1558;42.700;23.360;2022-12-07T05:43:19;95255.19;;;4.87;100.00
3096;BME280;1558;42.700;23.360;2022-12-07T05:45:47;95269.63;;;4.86;100.00
3096;BME280;1558;42.700;23.360;2022-12-07T05:48:15;95259.34;;;4.93;100.00
3096;BME280;1558;42.700;23.360;2022-12-07T05:50:43;95230.44;;;4.82;100.00
3096;BME280;1558;42.700;23.360;2022-12-07T05:53:11;95218.38;;;4.70;100.00
3096;BME280;1558;42.700;23.360;2022-12-07T05:55:46;95237.66;;;4.81;100.00
3096;BME280;1558;42.700;23.360;2022-12-07T05:58:14;95248.47;;;4.90;100.00
3096;BME280;1558;42.700;23.360;2022-12-07T06:00:59;95247.84;;;4.93;100.00
3096;BME280;1558;42.700;23.360;2022-12-07T06:03:27;95235.38;;;4.88;100.00
3096;BME280;1558;42.700;23.360;2022-12-07T06:05:55;95248.34;;;4.95;100.00
3096;BME280;1558;42.700;23.360;2022-12-07T06:08:23;95243.63;;;4.92;100.00
3096;BME280;1558;42.700;23.360;2022-12-07T06:10:54;95246.88;;;4.89;100.00
3096;BME280;1558;42.700;23.360;2022-12-07T06:13:36;95253.81;;;4.90;100.00
3096;BME280;1558;42.700;23.360;2022-12-07T06:16:10;95228.44;;;4.73;100.00
3096;BME280;1558;42.700;23.360;2022-12-07T06:18:39;95247.84;;;4.93;100.00
3096;BME280;1558;42.700;23.360;2022-12-07T06:21:06;95249.25;;;5.04;100.00
3096;BME280;1558;42.700;23.360;2022-12-07T06:23:34;95253.22;;;5.06;100.00
3096;BME280;1558;42.700;23.360;2022-12-07T06:26:04;95248.66;;;5.07;100.00
3096;BME280;1558;42.700;23.360;2022-12-07T06:28:32;95249.34;;;4.99;100.00
3096;BME280;1558;42.700;23.360;2022-12-07T06:31:00;95252.81;;;5.13;100.00
3096;BME280;1558;42.700;23.360;2022-12-07T06:33:29;95253.59;;;5.27;100.00
3096;BME280;1558;42.700;23.360;2022-12-07T06:35:57;95258.34;;;5.30;100.00
3096;BME280;1558;42.700;23.360;2022-12-07T06:38:25;95261.50;;;5.32;100.00
3096;BME280;1558;42.700;23.360;2022-12-07T06:40:52;95273.28;;;5.31;100.00
3096;BME280;1558;42.700;23.360;2022-12-07T06:43:22;95270.13;;;5.29;100.00
3096;BME280;1558;42.700;23.360;2022-12-07T06:45:50;95266.63;;;5.42;100.00
3096;BME280;1558;42.700;23.360;2022-12-07T06:48:18;95267.75;;;5.41;100.00
3096;BME280;1558;42.700;23.360;2022-12-07T06:50:46;95265.84;;;5.28;100.00
3096;BME280;1558;42.700;23.360;2022-12-07T06:53:20;95240.91;;;5.19;100.00
3096;BME280;1558;42.700;23.360;2022-12-07T06:55:50;95269.72;;;5.49;100.00
3096;BME280;1558;42.700;23.360;2022-12-07T06:58:18;95236.16;;;5.29;100.00
3096;BME280;1558;42.700;23.360;2022-12-07T07:00:48;95264.97;;;5.46;100.00
3096;BME280;1558;42.700;23.360;2022-12-07T07:03:16;95210.03;;;5.13;100.00
3096;BME280;1558;42.700;23.360;2022-12-07T07:05:44;95262.25;;;5.60;100.00
3096;BME280;1558;42.700;23.360;2022-12-07T07:08:13;95240.31;;;5.49;100.00
3096;BME280;1558;42.700;23.360;2022-12-07T07:10:49;95228.00;;;5.48;100.00
3096;BME280;1558;42.700;23.360;2022-12-07T07:13:17;95257.25;;;5.80;100.00
3096;BME280;1558;42.700;23.360;2022-12-07T07:21:20;95271.03;;;5.87;100.00
3096;BME280;1558;42.700;23.360;2022-12-07T07:23:54;95245.56;;;5.76;100.00
3096;BME280;1558;42.700;23.360;2022-12-07T07:32:39;95272.16;;;6.08;100.00
3096;BME280;1558;42.700;23.360;2022-12-07T10:36:44;95128.31;;;9.79;100.00
3096;BME280;1558;42.700;23.360;2022-12-07T10:39:14;95126.44;;;9.30;100.00
3096;BME280;1558;42.700;23.360;2022-12-07T10:41:53;95125.72;;;8.92;100.00
3096;BME280;1558;42.700;23.360;2022-12-07T10:44:23;95131.47;;;9.11;100.00
3096;BME280;1558;42.700;23.360;2022-12-07T10:47:00;95120.84;;;8.94;100.00
3096;BME280;1558;42.700;23.360;2022-12-07T10:49:58;95085.13;;;8.84;100.00
3096;BME280;1558;42.700;23.360;2022-12-07T10:52:44;95123.31;;;9.28;100.00
3096;BME280;1558;42.700;23.360;2022-12-07T10:55:21;95117.59;;;9.50;100.00
3096;BME280;1558;42.700;23.360;2022-12-07T10:58:11;95121.28;;;9.45;100.00
3096;BME280;1558;42.700;23.360;2022-12-07T11:00:53;95102.50;;;9.37;100.00
3096;BME280;1558;42.700;23.360;2022-12-07T11:03:42;95112.19;;;9.09;100.00
3096;BME280;1558;42.700;23.360;2022-12-07T11:06:20;95093.69;;;9.28;100.00
3096;BME280;1558;42.700;23.360;2022-12-07T11:09:03;95076.78;;;9.48;100.00
3096;BME280;1558;42.700;23.360;2022-12-07T11:11:35;95085.25;;;10.03;100.00
3096;BME280;1558;42.700;23.360;2022-12-07T11:14:13;95080.88;;;9.99;100.00
3096;BME280;1558;42.700;23.360;2022-12-07T11:16:51;95026.63;;;9.23;100.00
3096;BME280;1558;42.700;23.360;2022-12-07T11:19:40;95067.50;;;9.58;100.00
3096;BME280;1558;42.700;23.360;2022-12-07T11:22:21;95080.59;;;9.80;100.00
3096;BME280;1558;42.700;23.360;2022-12-07T11:24:56;95073.25;;;10.01;100.00
3096;BME280;1558;42.700;23.360;2022-12-07T11:27:33;95078.97;;;9.99;100.00
3096;BME280;1558;42.700;23.360;2022-12-07T11:30:22;95062.41;;;10.09;100.00
3096;BME280;1558;42.700;23.360;2022-12-07T11:33:03;95048.19;;;10.21;100.00
3096;BME280;1558;42.700;23.360;2022-12-07T11:35:43;95049.44;;;10.84;100.00
3096;BME280;1558;42.700;23.360;2022-12-07T11:38:15;95044.31;;;11.19;100.00
3096;BME280;1558;42.700;23.360;2022-12-07T11:40:54;94928.59;;;10.26;100.00
3096;BME280;1558;42.700;23.360;2022-12-07T11:43:52;95041.53;;;11.03;100.00
3096;BME280;1558;42.700;23.360;2022-12-07T11:46:24;95029.66;;;10.68;100.00
3096;BME280;1558;42.700;23.360;2022-12-07T11:48:58;95040.34;;;10.76;100.00
3096;BME280;1558;42.700;23.360;2022-12-07T11:51:33;95040.38;;;11.28;100.00
3096;BME280;1558;42.700;23.360;2022-12-07T11:54:11;95044.75;;;11.73;98.81
3096;BME280;1558;42.700;23.360;2022-12-07T11:56:42;95045.50;;;12.01;97.36
3096;BME280;1558;42.700;23.360;2022-12-07T11:59:13;95032.28;;;12.58;95.60
3096;BME280;1558;42.700;23.360;2022-12-07T12:01:51;95028.34;;;12.56;89.62
3096;BME280;1558;42.700;23.360;2022-12-07T12:04:45;95021.97;;;12.48;88.48
3096;BME280;1558;42.700;23.360;2022-12-07T12:07:19;95002.19;;;12.60;88.95
3096;BME280;1558;42.700;23.360;2022-12-07T12:10:17;95019.88;;;12.42;87.06
3096;BME280;1558;42.700;23.360;2022-12-07T12:16:38;94998.91;;;11.76;91.28
3096;BME280;1558;42.700;23.360;2022-12-07T12:19:22;94979.78;;;11.41;92.00
3096;BME280;1558;42.700;23.360;2022-12-07T12:21:56;95007.88;;;11.52;94.95
3096;BME280;1558;42.700;23.360;2022-12-07T12:24:26;95011.75;;;11.39;93.91
3096;BME280;1558;42.700;23.360;2022-12-07T12:27:01;95003.97;;;11.10;95.31
3096;BME280;1558;42.700;23.360;2022-12-07T12:29:34;95004.13;;;10.89;97.32
3096;BME280;1558;42.700;23.360;2022-12-07T12:32:13;94942.41;;;10.48;99.07
3096;BME280;1558;42.700;23.360;2022-12-07T12:34:59;94955.50;;;10.62;99.22
3096;BME280;1558;42.700;23.360;2022-12-07T12:37:44;94948.03;;;10.31;100.00
3096;BME280;1558;42.700;23.360;2022-12-07T12:43:50;94989.91;;;10.41;100.00
3096;BME280;1558;42.700;23.360;2022-12-07T12:46:48;94859.06;;;9.71;100.00
3096;BME280;1558;42.700;23.360;2022-12-07T12:52:51;94984.63;;;11.08;100.00
3096;BME280;1558;42.700;23.360;2022-12-07T12:58:46;94964.94;;;10.56;100.00
3096;BME280;1558;42.700;23.360;2022-12-07T13:01:39;94967.31;;;10.69;100.00
3096;BME280;1558;42.700;23.360;2022-12-07T13:04:23;94987.97;;;11.17;100.00
3096;BME280;1558;42.700;23.360;2022-12-07T13:06:52;94986.47;;;11.60;100.00
3096;BME280;1558;42.700;23.360;2022-12-07T13:09:23;94981.53;;;12.05;98.77
3096;BME280;1558;42.700;23.360;2022-12-07T13:12:02;94987.19;;;12.31;94.63
3096;BME280;1558;42.700;23.360;2022-12-07T13:14:51;94971.66;;;12.28;92.38
3096;BME280;1558;42.700;23.360;2022-12-07T13:17:56;94976.00;;;12.33;93.06
3096;BME280;1558;42.700;23.360;2022-12-07T13:20:47;94985.25;;;12.47;91.99
3096;BME280;1558;42.700;23.360;2022-12-07T13:23:22;94973.66;;;12.47;91.69
3096;BME280;1558;42.700;23.360;2022-12-07T13:26:09;94945.22;;;12.37;90.13
3096;BME280;1558;42.700;23.360;2022-12-07T13:28:45;94976.44;;;12.50;89.97
3096;BME280;1558;42.700;23.360;2022-12-07T13:31:34;94956.47;;;12.23;90.06
3096;BME280;1558;42.700;23.360;2022-12-07T13:34:04;94973.47;;;12.40;90.90
3096;BME280;1558;42.700;23.360;2022-12-07T13:36:37;94918.00;;;12.30;90.68
3096;BME280;1558;42.700;23.360;2022-12-07T13:39:18;94950.31;;;12.73;88.99
3096;BME280;1558;42.700;23.360;2022-12-07T13:41:50;94966.56;;;12.93;88.02
3096;BME280;1558;42.700;23.360;2022-12-07T13:44:19;94865.50;;;12.31;87.14
3096;BME280;1558;42.700;23.360;2022-12-07T13:46:53;94903.19;;;12.24;87.77
3096;BME280;1558;42.700;23.360;2022-12-07T13:49:23;94945.56;;;12.20;87.61
3096;BME280;1558;42.700;23.360;2022-12-07T13:51:53;94962.31;;;12.10;90.48
3096;BME280;1558;42.700;23.360;2022-12-07T13:54:22;94960.75;;;12.09;91.40
3096;BME280;1558;42.700;23.360;2022-12-07T13:56:51;94968.50;;;12.10;91.31
3096;BME280;1558;42.700;23.360;2022-12-07T13:59:23;94912.69;;;11.87;91.75
3096;BME280;1558;42.700;23.360;2022-12-07T14:01:52;94960.31;;;12.07;92.20
3096;BME280;1558;42.700;23.360;2022-12-07T14:04:31;94935.28;;;11.79;92.20
3096;BME280;1558;42.700;23.360;2022-12-07T14:07:17;94968.41;;;11.91;92.85
3096;BME280;1558;42.700;23.360;2022-12-07T14:09:54;94893.81;;;11.43;93.57
3096;BME280;1558;42.700;23.360;2022-12-07T14:12:23;94952.78;;;11.69;94.37
3096;BME280;1558;42.700;23.360;2022-12-07T14:14:52;94945.03;;;11.68;94.99
3096;BME280;1558;42.700;23.360;2022-12-07T14:17:22;94936.69;;;11.61;94.82
3096;BME280;1558;42.700;23.360;2022-12-07T14:19:52;94969.34;;;11.68;95.57
3096;BME280;1558;42.700;23.360;2022-12-07T14:22:29;94969.97;;;11.49;96.13
3096;BME280;1558;42.700;23.360;2022-12-07T14:25:18;94900.56;;;10.94;97.05
3096;BME280;1558;42.700;23.360;2022-12-07T14:27:49;94967.72;;;11.23;98.03
3096;BME280;1558;42.700;23.360;2022-12-07T14:30:18;94979.22;;;11.08;98.60
3096;BME280;1558;42.700;23.360;2022-12-07T14:32:48;94976.91;;;10.95;100.00
3096;BME280;1558;42.700;23.360;2022-12-07T14:35:18;94971.31;;;10.87;100.00
3096;BME280;1558;42.700;23.360;2022-12-07T14:37:48;94970.09;;;10.73;100.00
3096;BME280;1558;42.700;23.360;2022-12-07T14:40:19;94970.47;;;10.59;100.00
3096;BME280;1558;42.700;23.360;2022-12-07T14:42:50;94838.19;;;9.68;100.00
3096;BME280;1558;42.700;23.360;2022-12-07T14:45:21;94970.09;;;10.61;100.00
3096;BME280;1558;42.700;23.360;2022-12-07T14:47:50;94950.59;;;10.40;100.00
3096;BME280;1558;42.700;23.360;2022-12-07T14:50:41;94839.97;;;9.51;100.00
3096;BME280;1558;42.700;23.360;2022-12-07T14:53:34;94971.03;;;10.29;100.00
3096;BME280;1558;42.700;23.360;2022-12-07T14:56:06;94970.59;;;10.14;100.00
3096;BME280;1558;42.700;23.360;2022-12-07T14:58:34;94971.03;;;10.16;100.00
3096;BME280;1558;42.700;23.360;2022-12-07T15:01:03;94913.59;;;9.80;100.00
3096;BME280;1558;42.700;23.360;2022-12-07T15:03:31;94981.38;;;10.14;100.00
3096;BME280;1558;42.700;23.360;2022-12-07T15:06:01;94978.88;;;10.09;100.00
3096;BME280;1558;42.700;23.360;2022-12-07T15:08:30;94986.06;;;10.05;100.00
3096;BME280;1558;42.700;23.360;2022-12-07T15:10:58;94995.22;;;9.92;100.00
3096;BME280;1558;42.700;23.360;2022-12-07T15:13:26;94989.81;;;9.80;100.00
3096;BME280;1558;42.700;23.360;2022-12-07T15:16:13;94989.97;;;9.63;100.00
3096;BME280;1558;42.700;23.360;2022-12-07T15:18:43;94992.44;;;9.56;100.00
3096;BME280;1558;42.700;23.360;2022-12-07T15:21:31;94947.88;;;9.14;100.00
3096;BME280;1558;42.700;23.360;2022-12-07T15:24:00;94954.34;;;9.01;100.00
3096;BME280;1558;42.700;23.360;2022-12-07T15:26:28;94996.56;;;9.21;100.00
3096;BME280;1558;42.700;23.360;2022-12-07T15:28:56;94991.84;;;9.18;100.00
3096;BME280;1558;42.700;23.360;2022-12-07T15:31:24;94930.59;;;8.82;100.00
3096;BME280;1558;42.700;23.360;2022-12-07T15:34:12;94989.22;;;9.09;100.00
3096;BME280;1558;42.700;23.360;2022-12-07T15:36:40;94992.91;;;9.05;100.00
3096;BME280;1558;42.700;23.360;2022-12-07T15:39:10;94959.13;;;8.74;100.00
3096;BME280;1558;42.700;23.360;2022-12-07T15:41:40;94911.50;;;8.34;100.00
3096;BME280;1558;42.700;23.360;2022-12-07T15:44:09;94948.63;;;8.61;100.00
3096;BME280;1558;42.700;23.360;2022-12-07T15:46:56;94974.94;;;8.55;100.00
3096;BME280;1558;42.700;23.360;2022-12-07T15:49:25;94947.53;;;8.33;100.00
3096;BME280;1558;42.700;23.360;2022-12-07T15:51:53;94966.78;;;8.43;100.00
3096;BME280;1558;42.700;23.360;2022-12-07T15:54:24;94986.16;;;8.49;100.00
3096;BME280;1558;42.700;23.360;2022-12-07T15:56:53;95005.88;;;8.61;100.00
3096;BME280;1558;42.700;23.360;2022-12-07T15:59:21;94992.03;;;8.51;100.00
3096;BME280;1558;42.700;23.360;2022-12-07T16:01:49;95013.28;;;8.64;100.00
3096;BME280;1558;42.700;23.360;2022-12-07T16:04:17;95008.88;;;8.60;100.00
3096;BME280;1558;42.700;23.360;2022-12-07T16:06:45;95020.44;;;8.60;100.00
3096;BME280;1558;42.700;23.360;2022-12-07T16:09:13;95016.81;;;8.56;100.00
3096;BME280;1558;42.700;23.360;2022-12-07T16:11:42;95023.16;;;8.52;100.00
3096;BME280;1558;42.700;23.360;2022-12-07T16:14:10;94987.84;;;8.33;100.00
3096;BME280;1558;42.700;23.360;2022-12-07T16:16:38;94982.81;;;8.23;100.00
3096;BME280;1558;42.700;23.360;2022-12-07T16:19:09;95015.66;;;8.37;100.00
3096;BME280;1558;42.700;23.360;2022-12-07T16:21:38;95015.22;;;8.26;100.00
3096;BME280;1558;42.700;23.360;2022-12-07T16:24:07;95014.75;;;8.15;100.00
3096;BME280;1558;42.700;23.360;2022-12-07T16:26:36;95029.25;;;7.94;100.00
3096;BME280;1558;42.700;23.360;2022-12-07T16:29:12;94957.84;;;7.38;100.00
3096;BME280;1558;42.700;23.360;2022-12-07T16:31:41;95026.28;;;7.78;100.00
3096;BME280;1558;42.700;23.360;2022-12-07T16:34:09;95030.84;;;7.78;100.00
3096;BME280;1558;42.700;23.360;2022-12-07T16:36:37;95010.69;;;7.55;100.00
3096;BME280;1558;42.700;23.360;2022-12-07T16:39:25;95029.94;;;7.65;100.00
3096;BME280;1558;42.700;23.360;2022-12-07T16:41:53;95033.09;;;7.59;100.00
3096;BME280;1558;42.700;23.360;2022-12-07T16:44:23;95041.31;;;7.53;100.00
3096;BME280;1558;42.700;23.360;2022-12-07T16:46:51;95047.34;;;7.50;100.00
3096;BME280;1558;42.700;23.360;2022-12-07T16:49:19;95046.69;;;7.45;100.00
3096;BME280;1558;42.700;23.360;2022-12-07T16:51:49;95051.59;;;7.43;100.00
3096;BME280;1558;42.700;23.360;2022-12-07T16:54:37;95056.16;;;7.42;100.00
3096;BME280;1558;42.700;23.360;2022-12-07T16:57:06;95024.78;;;7.26;100.00
3096;BME280;1558;42.700;23.360;2022-12-07T16:59:35;95055.53;;;7.37;100.00
3096;BME280;1558;42.700;23.360;2022-12-07T17:02:03;95053.34;;;7.30;100.00
3096;BME280;1558;42.700;23.360;2022-12-07T17:04:33;95049.41;;;7.19;100.00
3096;BME280;1558;42.700;23.360;2022-12-07T17:07:01;95042.94;;;7.12;100.00
3096;BME280;1558;42.700;23.360;2022-12-07T17:09:29;95049.72;;;7.09;100.00
3096;BME280;1558;42.700;23.360;2022-12-07T17:11:57;95059.66;;;7.00;100.00
3096;BME280;1558;42.700;23.360;2022-12-07T17:14:25;95049.22;;;6.90;100.00
3096;BME280;1558;42.700;23.360;2022-12-07T17:17:11;95050.13;;;6.68;100.00
3096;BME280;1558;42.700;23.360;2022-12-07T17:19:39;95054.69;;;6.51;100.00
3096;BME280;1558;42.700;23.360;2022-12-07T17:22:08;95017.88;;;6.26;100.00
3096;BME280;1558;42.700;23.360;2022-12-07T17:24:38;95054.78;;;6.37;100.00
3096;BME280;1558;42.700;23.360;2022-12-07T17:27:06;95065.31;;;6.25;100.00
3096;BME280;1558;42.700;23.360;2022-12-07T17:29:34;94986.00;;;5.68;100.00
3096;BME280;1558;42.700;23.360;2022-12-07T17:32:03;95050.91;;;6.12;100.00
3096;BME280;1558;42.700;23.360;2022-12-07T17:34:32;95060.56;;;6.22;100.00
3096;BME280;1558;42.700;23.360;2022-12-07T17:37:00;95035.75;;;5.99;100.00
3096;BME280;1558;42.700;23.360;2022-12-07T17:39:28;95059.59;;;6.18;100.00
3096;BME280;1558;42.700;23.360;2022-12-07T17:41:57;95056.63;;;6.20;100.00
3096;BME280;1558;42.700;23.360;2022-12-07T17:44:42;95059.78;;;6.22;100.00
3096;BME280;1558;42.700;23.360;2022-12-07T17:47:11;95065.75;;;6.19;100.00
3096;BME280;1558;42.700;23.360;2022-12-07T17:49:42;95006.72;;;5.84;100.00
3096;BME280;1558;42.700;23.360;2022-12-07T17:52:12;95071.72;;;6.16;100.00
3096;BME280;1558;42.700;23.360;2022-12-07T17:54:57;95067.59;;;6.09;100.00
3096;BME280;1558;42.700;23.360;2022-12-07T17:57:26;95070.53;;;5.99;100.00
3096;BME280;1558;42.700;23.360;2022-12-07T17:59:56;95066.91;;;5.95;100.00
3096;BME280;1558;42.700;23.360;2022-12-07T18:02:25;95043.44;;;5.70;100.00
3096;BME280;1558;42.700;23.360;2022-12-07T18:04:54;95053.53;;;5.73;100.00
3096;BME280;1558;42.700;23.360;2022-12-07T18:07:22;95069.44;;;5.78;100.00